Time;durP1;ratioP1;P1;durP2;ratioP2;P2;SDS_P1;SDS_P2;PMS_P1;PMS_P2;Temp;Humidity;BMP_temperature;BMP_pressure;BME280_temperature;BME280_humidity;BME280_pressure;Samples;Min_cycle;Max_cycle;Signal;HPM_P1;HPM_P2
2021/11/06 00:00:51;;;;;;;258.13;247.57;;;8.80;99.90;;;;;;4375611;32;20231;-61
2021/11/06 00:03:21;;;;;;;273.90;262.80;;;8.80;99.90;;;;;;4375598;32;20147;-61
2021/11/06 00:05:47;;;;;;;265.27;254.57;;;8.80;99.90;;;;;;4375273;32;20193;-61
2021/11/06 00:08:15;;;;;;;254.10;243.53;;;8.80;99.90;;;;;;4375141;32;20179;-61
2021/11/06 00:10:42;;;;;;;266.77;256.00;;;8.80;99.90;;;;;;4375882;32;20558;-61
2021/11/06 00:13:10;;;;;;;252.73;242.27;;;8.80;99.90;;;;;;4375218;32;20153;-61
2021/11/06 00:15:37;;;;;;;246.33;236.23;;;8.80;99.90;;;;;;4373607;32;20166;-63
2021/11/06 00:18:04;;;;;;;267.53;256.70;;;8.80;99.90;;;;;;4376938;32;20159;-61
2021/11/06 00:20:31;;;;;;;252.80;242.20;;;8.80;99.90;;;;;;4374917;32;20599;-61
2021/11/06 00:22:58;;;;;;;263.27;252.53;;;8.80;99.90;;;;;;4374925;32;20253;-61
2021/11/06 00:25:25;;;;;;;264.70;253.37;;;8.80;99.90;;;;;;4374192;32;20163;-61
2021/11/06 00:27:54;;;;;;;271.07;259.77;;;8.80;99.90;;;;;;4376943;32;20163;-61
2021/11/06 00:30:22;;;;;;;269.37;258.17;;;8.80;99.90;;;;;;4374534;32;20216;-61
2021/11/06 00:32:49;;;;;;;259.67;248.77;;;8.90;99.90;;;;;;4373844;32;20163;-61
2021/11/06 00:35:17;;;;;;;251.33;240.90;;;8.90;99.90;;;;;;4375542;32;20165;-62
2021/11/06 00:37:46;;;;;;;267.77;256.60;;;8.80;99.90;;;;;;4375644;32;20149;-60
2021/11/06 00:40:14;;;;;;;249.30;238.97;;;8.80;99.90;;;;;;4375691;32;20561;-61
2021/11/06 00:42:41;;;;;;;270.10;259.20;;;8.80;99.90;;;;;;4377442;32;20229;-60
2021/11/06 00:45:09;;;;;;;261.70;250.67;;;8.70;99.90;;;;;;4375657;32;20171;-61
2021/11/06 00:47:38;;;;;;;269.10;257.97;;;8.70;99.90;;;;;;4377323;32;20184;-61
2021/11/06 00:50:07;;;;;;;251.03;240.67;;;8.70;99.90;;;;;;4375607;32;20144;-62
2021/11/06 00:52:34;;;;;;;284.67;273.07;;;8.60;99.90;;;;;;4375579;32;20157;-60
2021/11/06 00:55:00;;;;;;;249.80;239.47;;;8.60;99.90;;;;;;4377117;32;20169;-60
2021/11/06 00:57:28;;;;;;;243.17;232.83;;;8.60;99.90;;;;;;4375522;32;20187;-61
2021/11/06 00:59:57;;;;;;;269.87;258.37;;;8.50;99.90;;;;;;4375521;32;20563;-61
2021/11/06 01:02:24;;;;;;;259.43;248.53;;;8.60;99.90;;;;;;4375554;32;20550;-61
2021/11/06 01:04:52;;;;;;;271.37;260.00;;;8.50;99.90;;;;;;4375986;32;20236;-61
2021/11/06 01:07:19;;;;;;;266.00;254.83;;;8.60;99.90;;;;;;4375375;32;20142;-60
2021/11/06 01:09:46;;;;;;;265.53;254.50;;;8.50;99.90;;;;;;4376044;32;20644;-61
2021/11/06 01:12:13;;;;;;;274.90;263.37;;;8.50;99.90;;;;;;4377071;32;20655;-61
2021/11/06 01:14:42;;;;;;;252.30;241.87;;;8.50;99.90;;;;;;4375375;32;20634;-61
2021/11/06 01:17:09;;;;;;;255.67;245.00;;;8.40;99.90;;;;;;4376888;32;20143;-60
2021/11/06 01:19:36;;;;;;;277.13;265.57;;;8.40;99.90;;;;;;4376778;32;20172;-60
2021/11/06 01:22:04;;;;;;;277.23;265.60;;;8.50;99.90;;;;;;4375552;32;20141;-61
2021/11/06 01:24:34;;;;;;;280.30;268.53;;;8.50;99.90;;;;;;4375290;32;20224;-61
2021/11/06 01:27:00;;;;;;;266.60;255.40;;;8.50;99.90;;;;;;4376082;32;20161;-60
2021/11/06 01:29:27;;;;;;;277.83;265.97;;;8.40;99.90;;;;;;4375347;32;20147;-61
2021/11/06 01:31:54;;;;;;;254.93;244.13;;;8.50;99.90;;;;;;4375411;32;20167;-61
2021/11/06 01:34:21;;;;;;;276.03;264.40;;;8.50;99.90;;;;;;4378964;32;20167;-61
2021/11/06 01:36:48;;;;;;;283.80;271.70;;;8.40;99.90;;;;;;4378018;32;20565;-60
2021/11/06 01:39:16;;;;;;;281.87;269.93;;;8.50;99.90;;;;;;4379484;32;20638;-61
2021/11/06 01:41:43;;;;;;;275.00;263.13;;;8.50;99.90;;;;;;4368999;32;20167;-61
2021/11/06 01:44:11;;;;;;;257.13;246.40;;;8.40;99.90;;;;;;4378206;32;20180;-61
2021/11/06 01:46:38;;;;;;;263.57;252.30;;;8.40;99.90;;;;;;4379752;32;20198;-61
2021/11/06 01:49:07;;;;;;;267.37;255.87;;;8.30;99.90;;;;;;4378449;32;20160;-60
2021/11/06 01:51:33;;;;;;;272.83;261.50;;;8.30;99.90;;;;;;4378048;32;20149;-62
2021/11/06 01:54:00;;;;;;;260.53;249.03;;;8.40;99.90;;;;;;4378020;32;20223;-61
2021/11/06 01:56:28;;;;;;;264.90;253.53;;;8.30;99.90;;;;;;4379574;32;20171;-60
2021/11/06 01:58:56;;;;;;;276.03;263.83;;;8.30;99.90;;;;;;4377977;32;20171;-61
2021/11/06 02:01:23;;;;;;;262.63;251.17;;;8.40;99.90;;;;;;4378295;32;20169;-62
2021/11/06 02:03:50;;;;;;;276.13;264.07;;;8.40;99.90;;;;;;4377134;32;20155;-60
2021/11/06 02:06:17;;;;;;;282.53;270.27;;;8.30;99.90;;;;;;4363951;32;20134;-62
2021/11/06 02:08:43;;;;;;;281.10;269.03;;;8.40;99.90;;;;;;4375329;32;20167;-61
2021/11/06 02:11:10;;;;;;;273.37;261.80;;;8.40;99.90;;;;;;4363180;32;20151;-62
2021/11/06 02:13:38;;;;;;;271.33;259.10;;;8.40;99.90;;;;;;4362828;33;20146;-60
2021/11/06 02:16:05;;;;;;;281.77;269.97;;;8.40;99.90;;;;;;4362721;33;20475;-62
2021/11/06 02:18:32;;;;;;;268.27;256.57;;;8.40;99.90;;;;;;4362694;32;20512;-61
2021/11/06 02:21:02;;;;;;;274.83;263.03;;;8.40;99.90;;;;;;4362901;32;20271;-62
2021/11/06 02:23:29;;;;;;;276.47;264.73;;;8.40;99.90;;;;;;4362991;32;20184;-60
2021/11/06 02:25:55;;;;;;;277.77;265.67;;;8.40;99.90;;;;;;4364238;32;20141;-62
2021/11/06 02:28:22;;;;;;;277.13;265.27;;;8.50;99.90;;;;;;4362587;33;20163;-61
2021/11/06 02:30:49;;;;;;;275.97;263.77;;;8.50;99.90;;;;;;4362311;33;20219;-61
2021/11/06 02:33:16;;;;;;;280.10;268.17;;;8.50;99.90;;;;;;4364277;32;20167;-62
2021/11/06 02:35:43;;;;;;;279.40;267.50;;;8.50;99.90;;;;;;4363428;32;20590;-61
2021/11/06 02:38:13;;;;;;;281.83;269.73;;;8.50;99.90;;;;;;4363358;32;20184;-62
2021/11/06 02:40:40;;;;;;;296.73;284.03;;;8.50;99.90;;;;;;4376616;32;20189;-61
2021/11/06 02:43:09;;;;;;;265.83;254.37;;;8.50;99.90;;;;;;4377670;32;20183;-61
2021/11/06 02:45:36;;;;;;;282.87;270.90;;;8.50;99.90;;;;;;4376665;32;20145;-61
2021/11/06 02:48:04;;;;;;;280.17;268.13;;;8.50;99.90;;;;;;4368156;32;20538;-62
2021/11/06 02:50:31;;;;;;;270.43;258.83;;;8.50;99.90;;;;;;4362231;33;20164;-60
2021/11/06 02:52:58;;;;;;;272.70;261.13;;;8.50;99.90;;;;;;4362213;33;20160;-61
2021/11/06 02:55:26;;;;;;;278.77;266.73;;;8.40;99.90;;;;;;4363666;32;20225;-62
2021/11/06 02:57:53;;;;;;;271.93;260.27;;;8.40;99.90;;;;;;4378023;32;20187;-61
2021/11/06 03:00:21;;;;;;;275.23;263.33;;;8.30;99.90;;;;;;4375505;32;20377;-61
2021/11/06 03:02:48;;;;;;;299.60;286.73;;;8.20;99.90;;;;;;4372487;32;20239;-61
2021/11/06 03:05:15;;;;;;;291.07;278.17;;;8.10;99.90;;;;;;4371352;32;20145;-62
2021/11/06 03:07:43;;;;;;;316.27;302.77;;;8.10;99.90;;;;;;4362568;32;20179;-61
2021/11/06 03:10:13;;;;;;;303.60;290.37;;;8.10;99.90;;;;;;4361874;32;20226;-60
2021/11/06 03:12:42;;;;;;;321.90;308.00;;;8.10;99.90;;;;;;4362121;33;20223;-60
2021/11/06 03:15:09;;;;;;;308.57;294.33;;;8.10;99.90;;;;;;4362013;33;20146;-60
2021/11/06 03:17:36;;;;;;;327.20;312.10;;;8.00;99.90;;;;;;4363291;32;20228;-61
2021/11/06 03:20:04;;;;;;;329.03;314.67;;;8.00;99.90;;;;;;4376759;32;20152;-60
2021/11/06 03:22:31;;;;;;;345.93;330.77;;;7.90;99.90;;;;;;4377444;32;20569;-61
2021/11/06 03:24:58;;;;;;;334.83;320.10;;;7.90;99.90;;;;;;4376739;32;20180;-60
2021/11/06 03:27:25;;;;;;;332.50;318.07;;;7.90;99.90;;;;;;4376791;32;20629;-60
2021/11/06 03:29:53;;;;;;;325.30;311.00;;;7.90;99.90;;;;;;4377584;32;20152;-61
2021/11/06 03:32:20;;;;;;;331.90;317.57;;;7.90;99.90;;;;;;4376506;32;20608;-60
2021/11/06 03:34:47;;;;;;;323.70;309.70;;;7.90;99.90;;;;;;4376580;32;20156;-60
2021/11/06 03:37:14;;;;;;;336.30;321.60;;;7.80;99.90;;;;;;4376862;32;20223;-60
2021/11/06 03:39:41;;;;;;;339.67;324.57;;;7.80;99.90;;;;;;4376591;32;20569;-61
2021/11/06 03:42:08;;;;;;;335.00;319.77;;;7.80;99.90;;;;;;4376670;32;20137;-61
2021/11/06 03:44:36;;;;;;;333.53;318.83;;;7.80;99.90;;;;;;4376692;32;20636;-59
2021/11/06 03:47:05;;;;;;;343.73;328.50;;;7.80;99.90;;;;;;4376650;32;20162;-61
2021/11/06 03:49:35;;;;;;;339.33;324.43;;;7.80;99.90;;;;;;4376429;32;20137;-61
2021/11/06 03:52:02;;;;;;;333.93;319.13;;;7.80;99.90;;;;;;4376357;32;20222;-62
2021/11/06 03:54:29;;;;;;;350.77;335.03;;;7.80;99.90;;;;;;4377682;32;20540;-61
2021/11/06 03:56:56;;;;;;;369.93;352.97;;;7.80;99.90;;;;;;4377596;32;20235;-62
2021/11/06 03:59:23;;;;;;;350.63;335.20;;;7.80;99.90;;;;;;4366477;32;20519;-60
2021/11/06 04:01:50;;;;;;;358.07;341.83;;;7.80;99.90;;;;;;4376321;32;20144;-60
2021/11/06 04:04:18;;;;;;;361.87;345.83;;;7.80;99.90;;;;;;4372293;32;20149;-60
2021/11/06 04:06:45;;;;;;;351.50;335.83;;;7.80;99.90;;;;;;4362181;32;20231;-61
2021/11/06 04:09:12;;;;;;;371.47;354.60;;;7.70;99.90;;;;;;4362867;32;20179;-62
2021/11/06 04:11:39;;;;;;;381.27;363.67;;;7.80;99.90;;;;;;4361097;33;20175;-62
2021/11/06 04:14:05;;;;;;;367.50;350.83;;;7.80;99.90;;;;;;4361177;33;20165;-60
2021/11/06 04:16:32;;;;;;;386.77;369.60;;;7.70;99.90;;;;;;4360931;33;20226;-60
2021/11/06 04:18:59;;;;;;;393.23;375.33;;;7.70;99.90;;;;;;4361107;33;20166;-60
2021/11/06 04:21:28;;;;;;;400.30;382.00;;;7.60;99.90;;;;;;4367710;32;20597;-61
2021/11/06 04:23:55;;;;;;;413.80;394.97;;;7.70;99.90;;;;;;4376743;32;20152;-60
2021/11/06 04:26:21;;;;;;;422.17;402.40;;;7.70;99.90;;;;;;4375908;32;20638;-60
2021/11/06 04:28:48;;;;;;;426.17;406.40;;;7.70;99.90;;;;;;4374272;32;20169;-60
2021/11/06 04:31:15;;;;;;;422.57;402.93;;;7.60;99.90;;;;;;4339081;32;1706330;-62
2021/11/06 04:33:42;;;;;;;412.73;393.60;;;7.70;99.90;;;;;;4390897;32;20175;-60
2021/11/06 04:36:09;;;;;;;435.60;415.50;;;7.70;99.90;;;;;;4384099;32;20161;-61
2021/11/06 04:38:37;;;;;;;424.57;404.40;;;7.60;99.90;;;;;;4376240;32;20245;-60
2021/11/06 04:41:04;;;;;;;456.50;434.70;;;7.60;99.90;;;;;;4377473;32;20212;-61
2021/11/06 04:43:31;;;;;;;452.40;430.47;;;7.60;99.90;;;;;;4375940;32;20648;-60
2021/11/06 04:45:58;;;;;;;434.50;413.87;;;7.60;99.90;;;;;;4374813;32;20179;-60
2021/11/06 04:48:25;;;;;;;457.10;435.07;;;7.60;99.90;;;;;;4377310;32;20190;-62
2021/11/06 04:50:53;;;;;;;449.53;427.87;;;7.60;99.90;;;;;;4375754;32;20167;-60
2021/11/06 04:53:20;;;;;;;449.77;427.93;;;7.70;99.90;;;;;;4375532;32;20153;-61
2021/11/06 04:55:48;;;;;;;441.13;419.80;;;7.60;99.90;;;;;;4371791;32;20171;-60
2021/11/06 04:58:15;;;;;;;452.93;431.43;;;7.60;99.90;;;;;;4377171;32;20576;-60
2021/11/06 05:00:42;;;;;;;442.23;420.17;;;7.70;99.90;;;;;;4377134;32;20172;-60
2021/11/06 05:03:11;;;;;;;456.30;434.20;;;7.70;99.90;;;;;;4375621;32;20213;-60
2021/11/06 05:05:38;;;;;;;462.57;439.97;;;7.70;99.90;;;;;;4376799;32;20152;-62
2021/11/06 05:08:05;;;;;;;449.77;427.33;;;7.70;99.90;;;;;;4374674;32;20215;-60
2021/11/06 05:10:32;;;;;;;472.80;449.53;;;7.70;99.90;;;;;;4371829;32;20211;-60
2021/11/06 05:13:00;;;;;;;481.23;456.90;;;7.70;99.90;;;;;;4360345;33;20191;-60
2021/11/06 05:15:27;;;;;;;456.63;433.83;;;7.70;99.90;;;;;;4361455;33;20219;-61
2021/11/06 05:17:54;;;;;;;456.53;433.83;;;7.70;99.90;;;;;;4360308;33;20204;-60
2021/11/06 05:20:21;;;;;;;473.87;450.10;;;7.80;99.90;;;;;;4361071;33;20567;-60
2021/11/06 05:22:48;;;;;;;479.97;455.83;;;7.80;99.90;;;;;;4361285;33;20171;-60
2021/11/06 05:25:15;;;;;;;447.70;424.50;;;7.80;99.90;;;;;;4360584;33;20163;-60
2021/11/06 05:27:41;;;;;;;477.17;453.00;;;7.70;99.90;;;;;;4360900;33;20206;-60
2021/11/06 05:30:12;;;;;;;489.13;464.43;;;7.70;99.90;;;;;;4360139;33;20172;-60
2021/11/06 05:32:40;;;;;;;477.57;453.47;;;7.80;99.90;;;;;;4362063;33;20575;-60
2021/11/06 05:35:10;;;;;;;484.70;459.73;;;7.80;99.90;;;;;;4364779;32;20164;-60
2021/11/06 05:37:37;;;;;;;457.10;433.53;;;7.80;99.90;;;;;;4376981;32;20529;-60
2021/11/06 05:40:04;;;;;;;480.00;455.77;;;7.90;99.90;;;;;;4375661;32;20176;-60
2021/11/06 05:42:32;;;;;;;463.50;439.50;;;7.90;99.90;;;;;;4375299;32;20169;-60
2021/11/06 05:44:59;;;;;;;485.33;460.43;;;7.80;99.90;;;;;;4375231;32;20153;-60
2021/11/06 05:47:27;;;;;;;501.23;475.57;;;7.80;99.90;;;;;;4361667;32;20593;-60
2021/11/06 05:49:57;;;;;;;474.97;451.30;;;7.80;99.90;;;;;;4361899;32;20156;-60
2021/11/06 05:52:24;;;;;;;490.03;464.57;;;7.90;99.90;;;;;;4360842;32;20201;-60
2021/11/06 05:54:51;;;;;;;484.57;459.90;;;7.90;99.90;;;;;;4367829;32;20220;-60
2021/11/06 05:57:18;;;;;;;484.57;459.33;;;7.80;99.90;;;;;;4375180;32;20190;-60
2021/11/06 05:59:44;;;;;;;485.37;460.30;;;7.90;99.90;;;;;;4376149;32;20168;-60
2021/11/06 06:02:11;;;;;;;470.07;445.97;;;7.90;99.90;;;;;;4387580;32;20157;-60
2021/11/06 06:04:39;;;;;;;481.43;456.73;;;8.00;99.90;;;;;;4376444;32;20160;-60
2021/11/06 06:07:06;;;;;;;473.30;449.20;;;8.00;99.90;;;;;;4373248;32;20179;-60
2021/11/06 06:09:33;;;;;;;482.27;457.80;;;8.10;99.90;;;;;;4368175;32;20157;-60
2021/11/06 06:12:01;;;;;;;481.13;456.67;;;8.00;99.90;;;;;;4361321;33;20566;-60
2021/11/06 06:14:28;;;;;;;474.30;450.03;;;8.00;99.90;;;;;;4361798;33;20194;-60
2021/11/06 06:16:54;;;;;;;483.07;458.93;;;8.10;99.90;;;;;;4360358;33;20168;-60
2021/11/06 06:19:21;;;;;;;499.17;473.13;;;8.10;99.90;;;;;;4360990;32;20621;-60
2021/11/06 06:21:49;;;;;;;480.10;456.07;;;8.10;99.90;;;;;;4364422;32;20613;-60
2021/11/06 06:24:17;;;;;;;483.93;459.23;;;8.20;99.90;;;;;;4362772;33;20215;-60
2021/11/06 06:26:44;;;;;;;480.83;456.60;;;8.20;99.90;;;;;;4364103;32;20561;-60
2021/11/06 06:29:11;;;;;;;484.67;460.40;;;8.20;99.90;;;;;;4362545;33;20210;-60
2021/11/06 06:31:38;;;;;;;472.00;448.50;;;8.20;99.90;;;;;;4364389;32;20211;-60
2021/11/06 06:34:08;;;;;;;489.87;465.20;;;8.30;99.90;;;;;;4363156;32;20175;-60
2021/11/06 06:36:35;;;;;;;466.47;443.30;;;8.20;99.90;;;;;;4363212;32;20171;-60
2021/11/06 06:39:03;;;;;;;466.57;443.80;;;8.20;99.90;;;;;;4362385;33;20185;-60
2021/11/06 06:41:30;;;;;;;466.40;442.40;;;8.30;99.90;;;;;;4363071;32;20228;-60
2021/11/06 06:43:57;;;;;;;480.53;456.50;;;8.30;99.90;;;;;;4362753;32;20233;-60
2021/11/06 06:46:24;;;;;;;489.50;464.57;;;8.30;99.90;;;;;;4366614;32;20169;-60
2021/11/06 06:48:51;;;;;;;473.97;449.77;;;8.30;99.90;;;;;;4377430;32;20180;-60
2021/11/06 06:51:18;;;;;;;480.80;456.70;;;8.30;99.90;;;;;;4378185;32;20513;-60
2021/11/06 06:53:45;;;;;;;479.77;455.90;;;8.30;99.90;;;;;;4376922;32;20152;-60
2021/11/06 06:56:13;;;;;;;486.80;461.77;;;8.30;99.90;;;;;;4363228;32;20208;-60
2021/11/06 06:58:40;;;;;;;509.27;482.30;;;8.30;99.90;;;;;;4363090;32;20157;-60
2021/11/06 07:01:08;;;;;;;518.50;492.23;;;8.30;99.90;;;;;;4361822;33;20209;-60
2021/11/06 07:03:35;;;;;;;493.40;468.40;;;8.40;99.90;;;;;;4362177;33;20216;-60
2021/11/06 07:06:02;;;;;;;487.63;462.73;;;8.50;99.90;;;;;;4363789;32;20184;-60
2021/11/06 07:08:29;;;;;;;486.03;461.07;;;8.50;99.90;;;;;;4367968;32;20171;-60
2021/11/06 07:10:56;;;;;;;507.97;481.07;;;8.50;99.90;;;;;;4376984;32;20168;-61
2021/11/06 07:13:24;;;;;;;474.47;449.87;;;8.50;99.90;;;;;;4375368;32;20245;-60
2021/11/06 07:15:51;;;;;;;494.97;468.07;;;8.50;99.90;;;;;;4374980;32;20655;-60
2021/11/06 07:18:19;;;;;;;471.10;446.77;;;8.50;99.90;;;;;;4375264;32;20189;-60
2021/11/06 07:20:46;;;;;;;488.03;462.53;;;8.50;99.90;;;;;;4375528;32;20192;-60
2021/11/06 07:23:13;;;;;;;484.27;458.13;;;8.50;99.90;;;;;;4377125;32;20218;-60
2021/11/06 07:25:41;;;;;;;492.43;466.53;;;8.60;99.90;;;;;;4375134;32;20196;-61
2021/11/06 07:28:07;;;;;;;476.73;452.13;;;8.60;99.90;;;;;;4375473;32;20162;-60
2021/11/06 07:30:36;;;;;;;496.37;469.97;;;8.60;99.90;;;;;;4375838;32;20296;-60
2021/11/06 07:33:03;;;;;;;500.33;474.37;;;8.60;99.90;;;;;;4375234;32;20200;-60
2021/11/06 07:35:30;;;;;;;497.37;471.23;;;8.60;99.90;;;;;;4374862;32;20177;-60
2021/11/06 07:37:57;;;;;;;503.70;476.77;;;8.70;99.90;;;;;;4374937;32;20168;-61
2021/11/06 07:40:24;;;;;;;492.77;467.47;;;8.60;99.90;;;;;;4375136;32;20275;-61
2021/11/06 07:42:51;;;;;;;484.03;459.03;;;8.80;99.90;;;;;;4375267;32;20505;-61
2021/11/06 07:45:20;;;;;;;492.53;466.60;;;8.80;99.90;;;;;;4375159;32;20166;-61
2021/11/06 07:47:48;;;;;;;494.50;468.17;;;8.90;99.90;;;;;;4375067;32;20194;-61
2021/11/06 07:50:15;;;;;;;493.03;466.87;;;9.00;99.90;;;;;;4374987;32;20180;-60
2021/11/06 07:52:42;;;;;;;484.13;458.77;;;9.00;99.90;;;;;;4376442;32;20153;-61
2021/11/06 07:55:09;;;;;;;481.37;456.60;;;9.10;99.90;;;;;;4374352;32;20235;-61
2021/11/06 07:57:36;;;;;;;467.60;443.13;;;9.20;99.90;;;;;;4374605;32;20174;-61
2021/11/06 08:00:04;;;;;;;476.13;451.63;;;9.20;99.90;;;;;;4374557;32;20532;-61
2021/11/06 08:02:32;;;;;;;479.13;455.53;;;9.30;99.90;;;;;;4374417;32;20184;-61
2021/11/06 08:05:01;;;;;;;452.90;429.77;;;9.30;99.90;;;;;;4374813;32;20163;-61
2021/11/06 08:07:28;;;;;;;439.93;417.70;;;9.30;99.90;;;;;;4376447;32;20500;-61
2021/11/06 08:09:55;;;;;;;440.73;418.27;;;9.30;99.90;;;;;;4376671;32;20216;-61
2021/11/06 08:12:22;;;;;;;422.47;401.30;;;9.30;99.90;;;;;;4375017;32;20223;-61
2021/11/06 08:14:48;;;;;;;422.53;401.50;;;9.30;99.90;;;;;;4375592;32;20170;-61
2021/11/06 08:17:16;;;;;;;416.40;395.53;;;9.40;99.90;;;;;;4376028;32;20213;-61
2021/11/06 08:19:42;;;;;;;412.07;391.53;;;9.40;99.90;;;;;;4374854;32;20196;-61
2021/11/06 08:22:11;;;;;;;394.37;375.53;;;9.30;99.90;;;;;;4375774;32;20156;-61
2021/11/06 08:24:40;;;;;;;381.60;363.03;;;9.40;99.90;;;;;;4374678;32;20174;-61
2021/11/06 08:27:08;;;;;;;402.07;382.17;;;9.30;99.90;;;;;;4375093;32;20212;-61
2021/11/06 08:29:35;;;;;;;384.37;365.90;;;9.40;99.90;;;;;;4370399;32;20188;-61
2021/11/06 08:32:02;;;;;;;395.13;376.43;;;9.50;99.90;;;;;;4376722;32;20158;-61
2021/11/06 08:34:29;;;;;;;399.53;380.50;;;9.60;99.90;;;;;;4374430;32;20164;-61
2021/11/06 08:36:57;;;;;;;387.93;369.00;;;9.70;99.90;;;;;;4374519;32;20224;-61
2021/11/06 08:39:25;;;;;;;351.00;334.07;;;9.80;99.90;;;;;;4368881;32;20251;-61
2021/11/06 08:41:53;;;;;;;351.90;335.17;;;9.80;99.90;;;;;;4371625;32;20497;-62
2021/11/06 08:44:21;;;;;;;362.07;344.13;;;9.90;99.90;;;;;;4374447;32;20607;-59
2021/11/06 08:46:51;;;;;;;348.53;331.87;;;10.10;99.90;;;;;;4374214;32;20180;-60
2021/11/06 08:49:18;;;;;;;331.67;315.63;;;10.30;99.90;;;;;;4375186;32;20180;-60
2021/11/06 08:51:47;;;;;;;319.57;303.63;;;10.40;99.90;;;;;;4375646;32;20157;-60
2021/11/06 08:54:17;;;;;;;321.57;306.30;;;10.50;99.90;;;;;;4376304;32;20206;-60
2021/11/06 08:56:47;;;;;;;319.00;303.70;;;10.60;99.90;;;;;;4373810;32;20208;-60
2021/11/06 08:59:15;;;;;;;315.37;300.83;;;10.80;99.90;;;;;;4370842;32;20242;-60
2021/11/06 09:01:42;;;;;;;308.27;293.53;;;11.00;99.90;;;;;;4374918;32;20212;-61
2021/11/06 09:04:10;;;;;;;298.70;284.50;;;11.30;99.90;;;;;;4375108;32;20160;-59
2021/11/06 09:06:38;;;;;;;267.20;254.53;;;11.50;99.90;;;;;;4374561;32;20186;-61
2021/11/06 09:09:07;;;;;;;263.03;250.50;;;11.50;99.90;;;;;;4374410;32;20186;-61
2021/11/06 09:11:34;;;;;;;262.03;249.77;;;11.40;99.90;;;;;;4372181;32;20181;-60
2021/11/06 09:14:02;;;;;;;250.67;238.93;;;11.50;99.90;;;;;;4374294;32;20180;-60
2021/11/06 09:16:29;;;;;;;260.27;248.30;;;11.50;99.90;;;;;;4372931;32;20176;-60
2021/11/06 09:18:56;;;;;;;269.57;256.97;;;11.50;99.90;;;;;;4374857;32;20503;-60
2021/11/06 09:21:26;;;;;;;249.23;237.67;;;11.60;99.90;;;;;;4375431;32;20199;-61
2021/11/06 09:23:54;;;;;;;226.90;216.70;;;11.40;99.90;;;;;;4373103;32;20220;-61
2021/11/06 09:26:21;;;;;;;270.50;257.97;;;11.10;99.90;;;;;;4370794;32;20150;-61
2021/11/06 09:28:49;;;;;;;252.80;241.07;;;10.80;99.90;;;;;;4371285;32;20224;-61
2021/11/06 09:31:18;;;;;;;263.30;250.87;;;10.70;99.90;;;;;;4375870;32;20156;-60
2021/11/06 09:33:46;;;;;;;269.33;257.00;;;10.70;99.90;;;;;;4371737;32;20164;-61
2021/11/06 09:36:14;;;;;;;273.07;260.50;;;10.70;99.90;;;;;;4366647;32;20648;-61
2021/11/06 09:38:42;;;;;;;267.67;255.30;;;10.70;99.90;;;;;;4374548;32;20161;-61
2021/11/06 09:41:10;;;;;;;275.50;262.87;;;10.80;99.90;;;;;;4368835;32;20180;-61
2021/11/06 09:43:38;;;;;;;264.90;252.47;;;11.00;99.90;;;;;;4372845;32;20165;-61
2021/11/06 09:46:08;;;;;;;264.10;252.20;;;11.10;99.90;;;;;;4374938;32;20180;-61
2021/11/06 09:48:38;;;;;;;273.27;260.70;;;11.10;99.90;;;;;;4375783;32;20476;-62
2021/11/06 09:51:07;;;;;;;276.87;264.70;;;11.20;99.90;;;;;;4374665;32;20611;-62
2021/11/06 09:53:40;;;;;;;270.60;258.17;;;11.20;99.90;;;;;;4376540;32;20228;-63
2021/11/06 09:56:07;;;;;;;242.23;230.80;;;11.40;99.90;;;;;;4376398;32;20178;-62
2021/11/06 09:58:35;;;;;;;243.60;232.60;;;11.50;99.90;;;;;;4378256;32;20191;-62
2021/11/06 10:01:02;;;;;;;233.60;222.63;;;11.60;99.90;;;;;;4379394;32;20611;-61
2021/11/06 10:03:29;;;;;;;240.23;229.37;;;11.30;99.90;;;;;;4377694;32;20164;-61
2021/11/06 10:06:03;;;;;;;243.00;231.70;;;11.30;99.90;;;;;;4370635;32;20232;-62
2021/11/06 10:08:34;;;;;;;256.90;245.57;;;11.30;99.90;;;;;;4370036;32;20176;-62
2021/11/06 10:11:04;;;;;;;222.93;212.70;;;11.50;99.90;;;;;;4372554;32;20181;-61
2021/11/06 10:13:31;;;;;;;218.33;208.43;;;11.60;99.90;;;;;;4370785;32;20168;-62
2021/11/06 10:15:59;;;;;;;240.00;229.23;;;11.60;99.90;;;;;;4370496;32;20496;-61
2021/11/06 10:18:30;;;;;;;237.13;226.33;;;11.60;99.90;;;;;;4373927;32;20186;-61
2021/11/06 10:21:07;;;;;;;230.43;219.83;;;11.50;99.90;;;;;;4364765;32;20167;-61
2021/11/06 10:23:41;;;;;;;230.67;220.20;;;11.40;99.90;;;;;;4371471;32;20160;-61
2021/11/06 10:26:13;;;;;;;225.67;215.03;;;11.30;99.90;;;;;;4368968;32;20195;-62
2021/11/06 10:28:40;;;;;;;258.07;246.13;;;11.20;99.90;;;;;;4374134;32;20172;-61
2021/11/06 10:31:09;;;;;;;244.53;233.53;;;11.20;99.90;;;;;;4371683;32;20224;-63
2021/11/06 10:33:48;;;;;;;235.80;224.93;;;11.00;99.90;;;;;;4371864;32;20168;-61
2021/11/06 10:36:23;;;;;;;237.80;226.87;;;11.00;99.90;;;;;;4363002;32;20203;-61
2021/11/06 10:39:04;;;;;;;244.37;233.13;;;11.10;99.90;;;;;;4369536;32;20576;-62
2021/11/06 10:41:32;;;;;;;265.87;253.70;;;11.00;99.90;;;;;;4373263;32;20577;-61
2021/11/06 10:43:59;;;;;;;277.40;265.27;;;11.00;99.90;;;;;;4368596;32;20173;-62
2021/11/06 10:46:30;;;;;;;268.43;256.43;;;10.90;99.90;;;;;;4366713;32;20241;-61
2021/11/06 10:48:58;;;;;;;259.03;247.03;;;10.90;99.90;;;;;;4372675;32;20253;-61
2021/11/06 10:51:27;;;;;;;267.77;255.77;;;10.80;99.90;;;;;;4372398;32;20242;-62
2021/11/06 10:53:55;;;;;;;283.87;271.37;;;10.80;99.90;;;;;;4372866;32;20932;-61
2021/11/06 10:56:31;;;;;;;288.77;275.53;;;10.80;99.90;;;;;;4372309;32;20575;-62
2021/11/06 10:59:01;;;;;;;292.43;279.30;;;10.90;99.90;;;;;;4371166;32;20161;-63
2021/11/06 11:01:30;;;;;;;264.87;253.23;;;11.00;99.90;;;;;;4371896;32;20213;-62
2021/11/06 11:04:02;;;;;;;268.80;256.73;;;11.20;99.90;;;;;;4361822;32;20565;-61
2021/11/06 11:06:39;;;;;;;289.50;276.50;;;11.30;99.90;;;;;;4362622;32;20184;-61
2021/11/06 11:09:10;;;;;;;246.20;234.97;;;11.50;99.90;;;;;;4363450;32;20504;-61
2021/11/06 11:11:37;;;;;;;253.23;242.30;;;11.60;99.90;;;;;;4365021;32;20173;-62
2021/11/06 11:14:06;;;;;;;267.87;255.67;;;11.60;99.90;;;;;;4376692;32;20156;-62
2021/11/06 11:16:36;;;;;;;249.80;238.43;;;11.60;99.90;;;;;;4377208;32;20160;-62
2021/11/06 11:19:05;;;;;;;256.67;244.87;;;11.50;99.90;;;;;;4375866;32;20175;-62
2021/11/06 11:21:39;;;;;;;261.60;249.43;;;11.40;99.90;;;;;;4376043;32;20599;-62
2021/11/06 11:24:09;;;;;;;256.37;243.87;;;11.60;99.90;;;;;;4376971;32;20249;-63
2021/11/06 11:26:41;;;;;;;244.90;234.40;;;11.90;99.90;;;;;;4377412;32;20247;-62
2021/11/06 11:29:10;;;;;;;227.53;216.83;;;12.20;99.90;;;;;;4376510;32;20169;-62
2021/11/06 11:31:38;;;;;;;208.60;198.90;;;12.30;99.90;;;;;;4376507;32;20198;-60
2021/11/06 11:34:08;;;;;;;242.80;232.10;;;12.40;99.90;;;;;;4376546;32;20153;-62
2021/11/06 11:36:38;;;;;;;228.13;217.80;;;12.50;99.90;;;;;;4376512;32;20185;-62
2021/11/06 11:39:08;;;;;;;239.77;229.17;;;12.50;99.90;;;;;;4373133;32;20153;-61
2021/11/06 11:42:17;;;;;;;208.93;199.23;;;12.50;99.90;;;;;;4376654;32;20159;-62
2021/11/06 11:45:03;;;;;;;206.73;197.33;;;12.40;99.90;;;;;;4315738;33;20158;-62
2021/11/06 11:47:35;;;;;;;213.77;204.17;;;12.40;99.90;;;;;;4316622;33;20165;-62
2021/11/06 11:50:05;;;;;;;234.20;223.60;;;12.30;99.90;;;;;;4314591;33;20583;-62
2021/11/06 11:52:36;;;;;;;232.27;222.17;;;12.40;99.90;;;;;;4315200;33;20630;-63
2021/11/06 11:55:08;;;;;;;224.20;214.30;;;12.30;99.90;;;;;;4316220;33;20236;-61
2021/11/06 11:57:36;;;;;;;226.40;216.30;;;12.30;99.90;;;;;;4316092;33;20513;-62
2021/11/06 12:00:44;;;;;;;237.27;226.47;;;12.20;99.90;;;;;;4314924;33;20221;-61
2021/11/06 12:03:11;;;;;;;230.90;220.47;;;12.20;99.90;;;;;;4316501;33;20561;-63
2021/11/06 12:05:42;;;;;;;245.43;234.53;;;12.30;99.90;;;;;;4313988;33;20699;-62
2021/11/06 12:08:38;;;;;;;257.77;246.23;;;12.30;99.90;;;;;;4314825;33;20203;-61
2021/11/06 12:11:16;;;;;;;229.70;219.13;;;12.30;99.90;;;;;;4314979;33;20188;-62
2021/11/06 12:13:48;;;;;;;249.53;238.47;;;12.30;99.90;;;;;;4307564;33;20166;-61
2021/11/06 12:16:17;;;;;;;275.53;263.53;;;12.40;99.90;;;;;;4300756;33;20695;-60
2021/11/06 12:18:56;;;;;;;277.83;265.30;;;12.40;99.90;;;;;;4300155;33;20158;-63
2021/11/06 12:21:43;;;;;;;275.57;263.63;;;12.30;99.90;;;;;;4340556;32;20520;-63